sensor_id;sensor_type;location;lat;lon;timestamp;P1;durP1;ratioP1;P2;durP2;ratioP2
39104;SDS011;46464;51.154;13.812;2023-03-31T00:02:02;4.85;;;1.52;;
39104;SDS011;46464;51.154;13.812;2023-03-31T00:04:42;3.92;;;1.33;;
39104;SDS011;46464;51.154;13.812;2023-03-31T00:07:18;5.95;;;1.30;;
39104;SDS011;46464;51.154;13.812;2023-03-31T00:09:50;5.07;;;1.13;;
39104;SDS011;46464;51.154;13.812;2023-03-31T00:12:35;2.78;;;1.05;;
39104;SDS011;46464;51.154;13.812;2023-03-31T00:15:02;4.47;;;1.30;;
39104;SDS011;46464;51.154;13.812;2023-03-31T00:17:29;3.05;;;0.95;;
39104;SDS011;46464;51.154;13.812;2023-03-31T00:19:59;3.92;;;1.08;;
39104;SDS011;46464;51.154;13.812;2023-03-31T00:22:27;5.57;;;1.48;;
39104;SDS011;46464;51.154;13.812;2023-03-31T00:24:54;5.90;;;1.08;;
39104;SDS011;46464;51.154;13.812;2023-03-31T00:27:21;4.40;;;0.85;;
39104;SDS011;46464;51.154;13.812;2023-03-31T00:29:47;3.05;;;1.20;;
39104;SDS011;46464;51.154;13.812;2023-03-31T00:32:15;3.67;;;1.02;;
39104;SDS011;46464;51.154;13.812;2023-03-31T00:34:42;5.43;;;1.08;;
39104;SDS011;46464;51.154;13.812;2023-03-31T00:37:09;5.03;;;1.00;;
39104;SDS011;46464;51.154;13.812;2023-03-31T00:39:41;4.50;;;1.10;;
39104;SDS011;46464;51.154;13.812;2023-03-31T00:42:11;10.68;;;2.65;;
39104;SDS011;46464;51.154;13.812;2023-03-31T00:47:44;5.25;;;1.20;;
39104;SDS011;46464;51.154;13.812;2023-03-31T00:50:24;4.97;;;0.98;;
39104;SDS011;46464;51.154;13.812;2023-03-31T00:52:55;4.20;;;1.10;;
39104;SDS011;46464;51.154;13.812;2023-03-31T00:55:30;7.32;;;1.58;;
39104;SDS011;46464;51.154;13.812;2023-03-31T00:58:01;4.63;;;1.23;;
39104;SDS011;46464;51.154;13.812;2023-03-31T01:00:31;6.68;;;1.27;;
39104;SDS011;46464;51.154;13.812;2023-03-31T01:02:58;5.82;;;1.77;;
39104;SDS011;46464;51.154;13.812;2023-03-31T01:05:33;6.45;;;1.30;;
39104;SDS011;46464;51.154;13.812;2023-03-31T01:08:07;6.38;;;1.48;;
39104;SDS011;46464;51.154;13.812;2023-03-31T01:10:37;4.82;;;1.55;;
39104;SDS011;46464;51.154;13.812;2023-03-31T01:13:07;6.85;;;2.05;;
39104;SDS011;46464;51.154;13.812;2023-03-31T01:15:36;7.55;;;1.73;;
39104;SDS011;46464;51.154;13.812;2023-03-31T01:18:06;4.05;;;1.20;;
39104;SDS011;46464;51.154;13.812;2023-03-31T01:23:32;4.05;;;1.30;;
39104;SDS011;46464;51.154;13.812;2023-03-31T01:29:27;7.22;;;1.30;;
39104;SDS011;46464;51.154;13.812;2023-03-31T01:46:37;10.02;;;3.05;;
39104;SDS011;46464;51.154;13.812;2023-03-31T01:55:01;8.57;;;1.42;;
39104;SDS011;46464;51.154;13.812;2023-03-31T01:57:35;4.88;;;1.40;;
39104;SDS011;46464;51.154;13.812;2023-03-31T02:00:09;4.22;;;1.10;;
39104;SDS011;46464;51.154;13.812;2023-03-31T02:02:39;5.55;;;1.00;;
39104;SDS011;46464;51.154;13.812;2023-03-31T02:05:13;6.18;;;1.20;;
39104;SDS011;46464;51.154;13.812;2023-03-31T02:07:48;4.43;;;1.15;;
39104;SDS011;46464;51.154;13.812;2023-03-31T02:10:20;5.72;;;1.33;;
39104;SDS011;46464;51.154;13.812;2023-03-31T02:12:48;4.72;;;1.00;;
39104;SDS011;46464;51.154;13.812;2023-03-31T02:15:21;7.28;;;1.23;;
39104;SDS011;46464;51.154;13.812;2023-03-31T02:17:53;5.30;;;1.15;;
39104;SDS011;46464;51.154;13.812;2023-03-31T02:20:21;6.40;;;1.38;;
39104;SDS011;46464;51.154;13.812;2023-03-31T02:22:49;5.57;;;1.15;;
39104;SDS011;46464;51.154;13.812;2023-03-31T02:26:04;6.50;;;1.08;;
39104;SDS011;46464;51.154;13.812;2023-03-31T02:28:16;8.65;;;1.90;;
39104;SDS011;46464;51.154;13.812;2023-03-31T02:33:31;5.60;;;1.33;;
39104;SDS011;46464;51.154;13.812;2023-03-31T02:35:58;6.80;;;1.60;;
39104;SDS011;46464;51.154;13.812;2023-03-31T02:38:26;8.10;;;1.83;;
39104;SDS011;46464;51.154;13.812;2023-03-31T02:43:19;5.20;;;1.20;;
39104;SDS011;46464;51.154;13.812;2023-03-31T02:48:16;7.60;;;2.13;;
39104;SDS011;46464;51.154;13.812;2023-03-31T02:54:21;6.57;;;1.30;;
39104;SDS011;46464;51.154;13.812;2023-03-31T03:00:04;5.72;;;1.67;;
39104;SDS011;46464;51.154;13.812;2023-03-31T03:02:37;5.97;;;1.85;;
39104;SDS011;46464;51.154;13.812;2023-03-31T03:05:20;6.95;;;1.30;;
39104;SDS011;46464;51.154;13.812;2023-03-31T03:08:18;7.88;;;1.50;;
39104;SDS011;46464;51.154;13.812;2023-03-31T03:11:12;9.38;;;1.25;;
39104;SDS011;46464;51.154;13.812;2023-03-31T03:16:21;5.93;;;1.40;;
39104;SDS011;46464;51.154;13.812;2023-03-31T03:18:59;6.75;;;1.73;;
39104;SDS011;46464;51.154;13.812;2023-03-31T03:21:27;7.32;;;1.90;;
39104;SDS011;46464;51.154;13.812;2023-03-31T03:23:55;5.18;;;1.38;;
39104;SDS011;46464;51.154;13.812;2023-03-31T03:26:22;7.28;;;1.60;;
39104;SDS011;46464;51.154;13.812;2023-03-31T03:28:49;5.75;;;2.90;;
39104;SDS011;46464;51.154;13.812;2023-03-31T03:31:16;5.95;;;1.38;;
39104;SDS011;46464;51.154;13.812;2023-03-31T03:33:43;6.47;;;1.42;;
39104;SDS011;46464;51.154;13.812;2023-03-31T03:36:11;9.63;;;1.50;;
39104;SDS011;46464;51.154;13.812;2023-03-31T03:38:38;5.57;;;1.33;;
39104;SDS011;46464;51.154;13.812;2023-03-31T03:41:04;4.57;;;1.27;;
39104;SDS011;46464;51.154;13.812;2023-03-31T03:43:31;8.80;;;1.77;;
39104;SDS011;46464;51.154;13.812;2023-03-31T03:45:58;5.32;;;1.25;;
39104;SDS011;46464;51.154;13.812;2023-03-31T03:48:24;7.18;;;1.50;;
39104;SDS011;46464;51.154;13.812;2023-03-31T03:50:51;6.38;;;1.70;;
39104;SDS011;46464;51.154;13.812;2023-03-31T03:53:19;8.43;;;1.60;;
39104;SDS011;46464;51.154;13.812;2023-03-31T03:55:46;7.43;;;1.83;;
39104;SDS011;46464;51.154;13.812;2023-03-31T03:58:15;7.75;;;1.20;;
39104;SDS011;46464;51.154;13.812;2023-03-31T04:00:44;5.22;;;1.08;;
39104;SDS011;46464;51.154;13.812;2023-03-31T04:03:12;3.97;;;1.15;;
39104;SDS011;46464;51.154;13.812;2023-03-31T04:05:40;6.20;;;1.40;;
39104;SDS011;46464;51.154;13.812;2023-03-31T04:08:07;6.78;;;1.30;;
39104;SDS011;46464;51.154;13.812;2023-03-31T04:13:01;6.00;;;1.77;;
39104;SDS011;46464;51.154;13.812;2023-03-31T04:15:27;6.47;;;1.55;;
39104;SDS011;46464;51.154;13.812;2023-03-31T04:17:54;6.35;;;1.73;;
39104;SDS011;46464;51.154;13.812;2023-03-31T04:20:23;6.35;;;1.42;;
39104;SDS011;46464;51.154;13.812;2023-03-31T04:22:55;6.70;;;1.67;;
39104;SDS011;46464;51.154;13.812;2023-03-31T04:25:22;8.32;;;1.52;;
39104;SDS011;46464;51.154;13.812;2023-03-31T04:27:49;4.85;;;1.35;;
39104;SDS011;46464;51.154;13.812;2023-03-31T04:30:24;7.90;;;1.42;;
39104;SDS011;46464;51.154;13.812;2023-03-31T04:32:57;9.95;;;2.97;;
39104;SDS011;46464;51.154;13.812;2023-03-31T04:35:27;5.97;;;1.73;;
39104;SDS011;46464;51.154;13.812;2023-03-31T04:38:15;8.90;;;1.80;;
39104;SDS011;46464;51.154;13.812;2023-03-31T04:40:46;4.88;;;1.48;;
39104;SDS011;46464;51.154;13.812;2023-03-31T04:43:17;6.63;;;1.65;;
39104;SDS011;46464;51.154;13.812;2023-03-31T04:45:45;6.90;;;1.60;;
39104;SDS011;46464;51.154;13.812;2023-03-31T04:48:11;6.80;;;1.50;;
39104;SDS011;46464;51.154;13.812;2023-03-31T04:50:38;6.45;;;2.30;;
39104;SDS011;46464;51.154;13.812;2023-03-31T04:53:04;7.68;;;1.77;;
39104;SDS011;46464;51.154;13.812;2023-03-31T04:57:58;7.80;;;2.33;;
39104;SDS011;46464;51.154;13.812;2023-03-31T05:00:25;5.88;;;2.00;;
39104;SDS011;46464;51.154;13.812;2023-03-31T05:02:52;7.90;;;2.30;;
39104;SDS011;46464;51.154;13.812;2023-03-31T05:05:18;8.40;;;2.22;;
39104;SDS011;46464;51.154;13.812;2023-03-31T05:07:46;8.00;;;1.90;;
39104;SDS011;46464;51.154;13.812;2023-03-31T05:10:13;18.80;;;2.80;;
39104;SDS011;46464;51.154;13.812;2023-03-31T05:12:39;10.68;;;2.67;;
39104;SDS011;46464;51.154;13.812;2023-03-31T05:15:06;9.85;;;2.88;;
39104;SDS011;46464;51.154;13.812;2023-03-31T05:17:34;7.93;;;2.10;;
39104;SDS011;46464;51.154;13.812;2023-03-31T05:20:01;8.93;;;2.55;;
39104;SDS011;46464;51.154;13.812;2023-03-31T05:22:35;9.43;;;1.98;;
39104;SDS011;46464;51.154;13.812;2023-03-31T05:25:04;5.40;;;1.77;;
39104;SDS011;46464;51.154;13.812;2023-03-31T05:27:33;7.32;;;1.63;;
39104;SDS011;46464;51.154;13.812;2023-03-31T05:30:01;7.55;;;1.75;;
39104;SDS011;46464;51.154;13.812;2023-03-31T05:32:29;6.90;;;1.35;;
39104;SDS011;46464;51.154;13.812;2023-03-31T05:34:55;7.97;;;2.05;;
39104;SDS011;46464;51.154;13.812;2023-03-31T05:37:23;7.72;;;1.80;;
39104;SDS011;46464;51.154;13.812;2023-03-31T05:39:50;7.30;;;2.75;;
39104;SDS011;46464;51.154;13.812;2023-03-31T05:44:44;12.15;;;2.20;;
39104;SDS011;46464;51.154;13.812;2023-03-31T05:47:11;6.68;;;1.83;;
39104;SDS011;46464;51.154;13.812;2023-03-31T05:49:38;6.40;;;2.28;;
39104;SDS011;46464;51.154;13.812;2023-03-31T05:52:05;5.07;;;1.45;;
39104;SDS011;46464;51.154;13.812;2023-03-31T05:54:32;9.43;;;3.28;;
39104;SDS011;46464;51.154;13.812;2023-03-31T05:56:59;5.43;;;1.45;;
39104;SDS011;46464;51.154;13.812;2023-03-31T05:59:26;6.38;;;1.58;;
39104;SDS011;46464;51.154;13.812;2023-03-31T06:01:52;7.82;;;1.52;;
39104;SDS011;46464;51.154;13.812;2023-03-31T06:04:19;5.95;;;1.90;;
39104;SDS011;46464;51.154;13.812;2023-03-31T06:06:45;6.40;;;1.70;;
39104;SDS011;46464;51.154;13.812;2023-03-31T06:09:16;4.90;;;1.90;;
39104;SDS011;46464;51.154;13.812;2023-03-31T06:11:43;6.82;;;1.52;;
39104;SDS011;46464;51.154;13.812;2023-03-31T06:14:09;7.38;;;2.22;;
39104;SDS011;46464;51.154;13.812;2023-03-31T06:21:29;5.50;;;1.40;;
39104;SDS011;46464;51.154;13.812;2023-03-31T06:23:56;4.68;;;1.45;;
39104;SDS011;46464;51.154;13.812;2023-03-31T06:26:23;6.65;;;1.80;;
39104;SDS011;46464;51.154;13.812;2023-03-31T06:28:50;7.80;;;1.55;;
39104;SDS011;46464;51.154;13.812;2023-03-31T06:31:17;6.90;;;2.38;;
39104;SDS011;46464;51.154;13.812;2023-03-31T06:33:46;9.57;;;2.95;;
39104;SDS011;46464;51.154;13.812;2023-03-31T06:36:14;4.85;;;1.33;;
39104;SDS011;46464;51.154;13.812;2023-03-31T06:38:43;8.00;;;1.70;;
39104;SDS011;46464;51.154;13.812;2023-03-31T06:41:10;15.32;;;3.35;;
39104;SDS011;46464;51.154;13.812;2023-03-31T06:43:38;6.18;;;1.27;;
39104;SDS011;46464;51.154;13.812;2023-03-31T06:46:04;5.32;;;1.38;;
39104;SDS011;46464;51.154;13.812;2023-03-31T06:48:32;6.18;;;1.27;;
39104;SDS011;46464;51.154;13.812;2023-03-31T06:50:59;5.00;;;1.10;;
39104;SDS011;46464;51.154;13.812;2023-03-31T06:53:28;8.68;;;2.17;;
39104;SDS011;46464;51.154;13.812;2023-03-31T06:55:55;7.88;;;2.95;;
39104;SDS011;46464;51.154;13.812;2023-03-31T06:58:21;5.90;;;1.42;;
39104;SDS011;46464;51.154;13.812;2023-03-31T07:03:15;6.38;;;1.40;;
39104;SDS011;46464;51.154;13.812;2023-03-31T07:05:48;3.75;;;1.40;;
39104;SDS011;46464;51.154;13.812;2023-03-31T07:08:16;5.07;;;1.67;;
39104;SDS011;46464;51.154;13.812;2023-03-31T07:10:43;6.68;;;1.65;;
39104;SDS011;46464;51.154;13.812;2023-03-31T07:13:14;6.63;;;1.98;;
39104;SDS011;46464;51.154;13.812;2023-03-31T07:15:42;4.60;;;1.00;;
39104;SDS011;46464;51.154;13.812;2023-03-31T07:18:09;5.18;;;1.40;;
39104;SDS011;46464;51.154;13.812;2023-03-31T07:20:37;3.50;;;0.80;;
39104;SDS011;46464;51.154;13.812;2023-03-31T07:23:04;7.47;;;1.52;;
39104;SDS011;46464;51.154;13.812;2023-03-31T07:25:31;5.22;;;1.50;;
39104;SDS011;46464;51.154;13.812;2023-03-31T07:30:24;5.20;;;1.15;;
39104;SDS011;46464;51.154;13.812;2023-03-31T07:32:51;7.78;;;1.58;;
39104;SDS011;46464;51.154;13.812;2023-03-31T07:35:20;5.65;;;1.35;;
39104;SDS011;46464;51.154;13.812;2023-03-31T07:37:49;6.53;;;1.60;;
39104;SDS011;46464;51.154;13.812;2023-03-31T07:40:18;4.88;;;1.42;;
39104;SDS011;46464;51.154;13.812;2023-03-31T07:42:47;4.03;;;1.30;;
39104;SDS011;46464;51.154;13.812;2023-03-31T07:45:15;10.07;;;1.80;;
39104;SDS011;46464;51.154;13.812;2023-03-31T07:47:42;6.72;;;2.13;;
39104;SDS011;46464;51.154;13.812;2023-03-31T07:50:10;5.18;;;1.20;;
39104;SDS011;46464;51.154;13.812;2023-03-31T07:52:36;7.25;;;1.73;;
39104;SDS011;46464;51.154;13.812;2023-03-31T07:57:30;6.63;;;1.60;;
39104;SDS011;46464;51.154;13.812;2023-03-31T07:59:57;5.38;;;1.25;;
39104;SDS011;46464;51.154;13.812;2023-03-31T08:02:23;3.35;;;1.20;;
39104;SDS011;46464;51.154;13.812;2023-03-31T08:04:50;6.53;;;1.52;;
39104;SDS011;46464;51.154;13.812;2023-03-31T08:07:16;5.22;;;1.40;;
39104;SDS011;46464;51.154;13.812;2023-03-31T08:09:44;7.60;;;1.23;;
39104;SDS011;46464;51.154;13.812;2023-03-31T08:12:11;7.20;;;1.83;;
39104;SDS011;46464;51.154;13.812;2023-03-31T08:14:39;4.75;;;1.63;;
39104;SDS011;46464;51.154;13.812;2023-03-31T08:17:07;7.82;;;1.80;;
39104;SDS011;46464;51.154;13.812;2023-03-31T08:19:34;6.40;;;1.92;;
39104;SDS011;46464;51.154;13.812;2023-03-31T08:22:01;5.80;;;1.40;;
39104;SDS011;46464;51.154;13.812;2023-03-31T08:24:28;7.25;;;1.65;;
39104;SDS011;46464;51.154;13.812;2023-03-31T08:26:54;7.35;;;2.08;;
39104;SDS011;46464;51.154;13.812;2023-03-31T08:29:21;7.70;;;2.20;;
39104;SDS011;46464;51.154;13.812;2023-03-31T08:31:47;7.03;;;1.70;;
39104;SDS011;46464;51.154;13.812;2023-03-31T08:34:14;4.88;;;1.85;;
39104;SDS011;46464;51.154;13.812;2023-03-31T08:36:40;6.82;;;2.03;;
39104;SDS011;46464;51.154;13.812;2023-03-31T08:39:08;4.97;;;1.15;;
39104;SDS011;46464;51.154;13.812;2023-03-31T08:47:11;5.25;;;1.23;;
39104;SDS011;46464;51.154;13.812;2023-03-31T08:49:43;7.47;;;1.70;;
39104;SDS011;46464;51.154;13.812;2023-03-31T08:52:16;8.55;;;1.65;;
39104;SDS011;46464;51.154;13.812;2023-03-31T08:54:50;8.80;;;1.90;;
39104;SDS011;46464;51.154;13.812;2023-03-31T08:57:24;10.02;;;2.15;;
39104;SDS011;46464;51.154;13.812;2023-03-31T08:59:53;7.75;;;1.50;;
39104;SDS011;46464;51.154;13.812;2023-03-31T09:02:27;6.10;;;1.45;;
39104;SDS011;46464;51.154;13.812;2023-03-31T09:08:30;10.32;;;1.90;;
39104;SDS011;46464;51.154;13.812;2023-03-31T09:11:08;6.50;;;1.80;;
39104;SDS011;46464;51.154;13.812;2023-03-31T09:16:13;9.82;;;1.77;;
39104;SDS011;46464;51.154;13.812;2023-03-31T09:18:42;8.63;;;1.88;;
39104;SDS011;46464;51.154;13.812;2023-03-31T09:23:54;9.63;;;2.00;;
39104;SDS011;46464;51.154;13.812;2023-03-31T09:26:42;6.72;;;1.83;;
39104;SDS011;46464;51.154;13.812;2023-03-31T09:29:16;6.45;;;2.03;;
39104;SDS011;46464;51.154;13.812;2023-03-31T09:31:52;7.32;;;1.95;;
39104;SDS011;46464;51.154;13.812;2023-03-31T09:34:23;10.68;;;2.13;;
39104;SDS011;46464;51.154;13.812;2023-03-31T09:36:53;9.32;;;1.85;;
39104;SDS011;46464;51.154;13.812;2023-03-31T09:39:20;7.22;;;2.20;;
39104;SDS011;46464;51.154;13.812;2023-03-31T09:41:48;7.20;;;1.70;;
39104;SDS011;46464;51.154;13.812;2023-03-31T09:44:19;6.60;;;1.83;;
39104;SDS011;46464;51.154;13.812;2023-03-31T09:46:50;7.10;;;2.00;;
39104;SDS011;46464;51.154;13.812;2023-03-31T09:49:19;9.52;;;2.17;;
39104;SDS011;46464;51.154;13.812;2023-03-31T09:51:50;7.70;;;1.85;;
39104;SDS011;46464;51.154;13.812;2023-03-31T09:54:40;5.72;;;1.60;;
39104;SDS011;46464;51.154;13.812;2023-03-31T09:57:23;9.50;;;1.98;;
39104;SDS011;46464;51.154;13.812;2023-03-31T09:59:53;6.18;;;1.50;;
39104;SDS011;46464;51.154;13.812;2023-03-31T10:02:34;4.05;;;1.02;;
39104;SDS011;46464;51.154;13.812;2023-03-31T10:05:03;6.13;;;1.50;;
39104;SDS011;46464;51.154;13.812;2023-03-31T10:07:32;5.45;;;1.58;;
39104;SDS011;46464;51.154;13.812;2023-03-31T10:09:59;4.55;;;2.40;;
39104;SDS011;46464;51.154;13.812;2023-03-31T10:12:29;4.93;;;1.27;;
39104;SDS011;46464;51.154;13.812;2023-03-31T10:15:01;5.00;;;1.08;;
39104;SDS011;46464;51.154;13.812;2023-03-31T10:17:44;4.22;;;1.52;;
39104;SDS011;46464;51.154;13.812;2023-03-31T10:20:30;4.40;;;1.27;;
39104;SDS011;46464;51.154;13.812;2023-03-31T10:23:22;3.65;;;1.00;;
39104;SDS011;46464;51.154;13.812;2023-03-31T10:25:52;4.32;;;1.50;;
39104;SDS011;46464;51.154;13.812;2023-03-31T10:28:19;6.53;;;1.35;;
39104;SDS011;46464;51.154;13.812;2023-03-31T10:30:51;3.05;;;1.17;;
39104;SDS011;46464;51.154;13.812;2023-03-31T10:33:24;5.22;;;1.83;;
39104;SDS011;46464;51.154;13.812;2023-03-31T10:35:56;5.57;;;1.30;;
39104;SDS011;46464;51.154;13.812;2023-03-31T10:38:31;4.38;;;1.95;;
39104;SDS011;46464;51.154;13.812;2023-03-31T10:41:01;2.92;;;1.00;;
39104;SDS011;46464;51.154;13.812;2023-03-31T10:43:29;7.25;;;1.10;;
39104;SDS011;46464;51.154;13.812;2023-03-31T10:46:03;3.90;;;1.10;;
39104;SDS011;46464;51.154;13.812;2023-03-31T10:51:17;3.25;;;1.02;;
39104;SDS011;46464;51.154;13.812;2023-03-31T10:53:54;4.75;;;1.00;;
39104;SDS011;46464;51.154;13.812;2023-03-31T11:01:45;4.45;;;1.27;;
39104;SDS011;46464;51.154;13.812;2023-03-31T11:10:02;4.63;;;1.70;;
39104;SDS011;46464;51.154;13.812;2023-03-31T11:15:50;3.20;;;1.27;;
39104;SDS011;46464;51.154;13.812;2023-03-31T11:35:58;2.95;;;1.00;;
39104;SDS011;46464;51.154;13.812;2023-03-31T11:41:54;5.90;;;1.52;;
39104;SDS011;46464;51.154;13.812;2023-03-31T11:44:26;3.80;;;1.40;;
39104;SDS011;46464;51.154;13.812;2023-03-31T11:47:01;5.32;;;1.67;;
39104;SDS011;46464;51.154;13.812;2023-03-31T11:49:33;5.03;;;1.88;;
39104;SDS011;46464;51.154;13.812;2023-03-31T11:52:14;4.38;;;1.70;;
39104;SDS011;46464;51.154;13.812;2023-03-31T11:54:54;3.83;;;2.03;;
39104;SDS011;46464;51.154;13.812;2023-03-31T12:00:05;4.80;;;2.72;;
39104;SDS011;46464;51.154;13.812;2023-03-31T12:02:47;5.32;;;2.30;;
39104;SDS011;46464;51.154;13.812;2023-03-31T12:05:19;5.18;;;2.15;;
39104;SDS011;46464;51.154;13.812;2023-03-31T12:08:06;3.47;;;2.40;;
39104;SDS011;46464;51.154;13.812;2023-03-31T12:10:53;6.82;;;3.20;;
39104;SDS011;46464;51.154;13.812;2023-03-31T12:16:04;6.60;;;2.60;;
39104;SDS011;46464;51.154;13.812;2023-03-31T12:18:44;4.97;;;2.78;;
39104;SDS011;46464;51.154;13.812;2023-03-31T12:21:22;4.80;;;2.40;;
39104;SDS011;46464;51.154;13.812;2023-03-31T12:23:50;3.97;;;2.67;;
39104;SDS011;46464;51.154;13.812;2023-03-31T12:26:34;5.13;;;3.00;;
39104;SDS011;46464;51.154;13.812;2023-03-31T12:32:01;4.13;;;2.80;;
39104;SDS011;46464;51.154;13.812;2023-03-31T12:34:31;6.40;;;2.50;;
39104;SDS011;46464;51.154;13.812;2023-03-31T12:37:22;5.05;;;2.80;;
39104;SDS011;46464;51.154;13.812;2023-03-31T12:42:52;4.93;;;2.40;;
39104;SDS011;46464;51.154;13.812;2023-03-31T12:46:35;4.78;;;2.45;;
39104;SDS011;46464;51.154;13.812;2023-03-31T12:48:57;6.10;;;2.83;;
39104;SDS011;46464;51.154;13.812;2023-03-31T12:51:37;8.73;;;2.45;;
39104;SDS011;46464;51.154;13.812;2023-03-31T12:59:40;5.13;;;2.60;;
39104;SDS011;46464;51.154;13.812;2023-03-31T13:04:35;4.50;;;2.22;;
39104;SDS011;46464;51.154;13.812;2023-03-31T13:07:03;5.03;;;2.70;;
39104;SDS011;46464;51.154;13.812;2023-03-31T13:09:47;5.65;;;2.85;;
39104;SDS011;46464;51.154;13.812;2023-03-31T13:12:19;6.25;;;2.38;;
39104;SDS011;46464;51.154;13.812;2023-03-31T13:14:49;4.97;;;2.70;;
39104;SDS011;46464;51.154;13.812;2023-03-31T13:17:21;6.40;;;3.10;;
39104;SDS011;46464;51.154;13.812;2023-03-31T13:20:14;6.25;;;4.00;;
39104;SDS011;46464;51.154;13.812;2023-03-31T13:23:01;5.13;;;3.25;;
39104;SDS011;46464;51.154;13.812;2023-03-31T13:28:07;3.05;;;1.90;;
39104;SDS011;46464;51.154;13.812;2023-03-31T13:33:29;4.78;;;1.77;;
39104;SDS011;46464;51.154;13.812;2023-03-31T13:51:35;5.32;;;3.03;;
39104;SDS011;46464;51.154;13.812;2023-03-31T13:56:45;4.78;;;2.80;;
39104;SDS011;46464;51.154;13.812;2023-03-31T14:04:43;4.22;;;2.45;;
39104;SDS011;46464;51.154;13.812;2023-03-31T14:07:27;3.70;;;2.30;;
39104;SDS011;46464;51.154;13.812;2023-03-31T14:10:02;4.57;;;2.38;;
39104;SDS011;46464;51.154;13.812;2023-03-31T14:12:36;3.85;;;2.15;;
39104;SDS011;46464;51.154;13.812;2023-03-31T14:15:04;5.47;;;2.70;;
39104;SDS011;46464;51.154;13.812;2023-03-31T14:17:35;5.60;;;3.53;;
39104;SDS011;46464;51.154;13.812;2023-03-31T14:22:46;13.02;;;3.97;;
39104;SDS011;46464;51.154;13.812;2023-03-31T14:25:25;5.10;;;2.63;;
39104;SDS011;46464;51.154;13.812;2023-03-31T14:30:49;5.10;;;2.67;;
39104;SDS011;46464;51.154;13.812;2023-03-31T14:33:52;6.03;;;3.00;;
39104;SDS011;46464;51.154;13.812;2023-03-31T14:36:41;3.90;;;1.90;;
39104;SDS011;46464;51.154;13.812;2023-03-31T14:39:30;3.25;;;1.88;;
39104;SDS011;46464;51.154;13.812;2023-03-31T14:42:03;4.60;;;1.50;;
39104;SDS011;46464;51.154;13.812;2023-03-31T14:44:38;3.92;;;1.55;;
39104;SDS011;46464;51.154;13.812;2023-03-31T14:47:14;5.80;;;1.55;;
39104;SDS011;46464;51.154;13.812;2023-03-31T14:49:57;3.05;;;1.23;;
39104;SDS011;46464;51.154;13.812;2023-03-31T14:52:28;3.78;;;1.60;;
39104;SDS011;46464;51.154;13.812;2023-03-31T14:54:57;5.00;;;1.27;;
39104;SDS011;46464;51.154;13.812;2023-03-31T14:57:27;3.08;;;1.50;;
39104;SDS011;46464;51.154;13.812;2023-03-31T14:59:58;3.50;;;1.50;;
39104;SDS011;46464;51.154;13.812;2023-03-31T15:02:36;3.15;;;1.63;;
39104;SDS011;46464;51.154;13.812;2023-03-31T15:05:08;3.17;;;1.60;;
39104;SDS011;46464;51.154;13.812;2023-03-31T15:07:43;3.40;;;1.98;;
39104;SDS011;46464;51.154;13.812;2023-03-31T15:10:15;3.78;;;1.67;;
39104;SDS011;46464;51.154;13.812;2023-03-31T15:12:46;2.15;;;0.95;;
39104;SDS011;46464;51.154;13.812;2023-03-31T15:15:14;3.80;;;2.20;;
39104;SDS011;46464;51.154;13.812;2023-03-31T15:17:42;3.83;;;1.45;;
39104;SDS011;46464;51.154;13.812;2023-03-31T15:20:34;7.00;;;2.78;;
39104;SDS011;46464;51.154;13.812;2023-03-31T15:23:04;2.88;;;1.00;;
39104;SDS011;46464;51.154;13.812;2023-03-31T15:25:55;1.77;;;0.90;;
39104;SDS011;46464;51.154;13.812;2023-03-31T15:28:24;3.72;;;1.50;;
39104;SDS011;46464;51.154;13.812;2023-03-31T15:30:55;2.95;;;1.48;;
39104;SDS011;46464;51.154;13.812;2023-03-31T15:33:35;2.17;;;0.98;;
39104;SDS011;46464;51.154;13.812;2023-03-31T15:36:07;3.20;;;1.08;;
39104;SDS011;46464;51.154;13.812;2023-03-31T15:38:36;2.03;;;0.80;;
39104;SDS011;46464;51.154;13.812;2023-03-31T15:41:03;4.20;;;0.90;;
39104;SDS011;46464;51.154;13.812;2023-03-31T15:46:08;2.70;;;1.00;;
39104;SDS011;46464;51.154;13.812;2023-03-31T15:48:51;2.55;;;1.10;;
39104;SDS011;46464;51.154;13.812;2023-03-31T15:51:23;4.20;;;1.48;;
39104;SDS011;46464;51.154;13.812;2023-03-31T15:54:01;3.80;;;1.65;;
39104;SDS011;46464;51.154;13.812;2023-03-31T15:56:40;4.65;;;1.92;;
39104;SDS011;46464;51.154;13.812;2023-03-31T15:59:21;2.30;;;1.05;;
39104;SDS011;46464;51.154;13.812;2023-03-31T16:02:07;5.03;;;2.17;;
39104;SDS011;46464;51.154;13.812;2023-03-31T16:04:59;5.65;;;2.17;;
39104;SDS011;46464;51.154;13.812;2023-03-31T16:07:35;4.60;;;1.60;;
39104;SDS011;46464;51.154;13.812;2023-03-31T16:10:04;4.55;;;1.67;;
39104;SDS011;46464;51.154;13.812;2023-03-31T16:15:35;3.60;;;1.75;;
39104;SDS011;46464;51.154;13.812;2023-03-31T16:18:13;4.65;;;1.98;;
39104;SDS011;46464;51.154;13.812;2023-03-31T16:20:49;3.90;;;1.90;;
39104;SDS011;46464;51.154;13.812;2023-03-31T16:23:23;4.82;;;1.90;;
39104;SDS011;46464;51.154;13.812;2023-03-31T16:25:52;4.63;;;2.72;;
39104;SDS011;46464;51.154;13.812;2023-03-31T16:28:21;2.67;;;1.10;;
39104;SDS011;46464;51.154;13.812;2023-03-31T16:30:51;3.03;;;1.10;;
39104;SDS011;46464;51.154;13.812;2023-03-31T16:33:20;2.63;;;1.13;;
39104;SDS011;46464;51.154;13.812;2023-03-31T16:35:50;4.00;;;0.90;;
39104;SDS011;46464;51.154;13.812;2023-03-31T16:38:19;4.50;;;1.52;;
39104;SDS011;46464;51.154;13.812;2023-03-31T16:40:47;3.58;;;1.65;;
39104;SDS011;46464;51.154;13.812;2023-03-31T16:43:17;2.03;;;1.00;;
39104;SDS011;46464;51.154;13.812;2023-03-31T16:45:46;3.60;;;1.23;;
39104;SDS011;46464;51.154;13.812;2023-03-31T16:48:15;4.95;;;0.95;;
39104;SDS011;46464;51.154;13.812;2023-03-31T16:50:44;2.60;;;0.90;;
39104;SDS011;46464;51.154;13.812;2023-03-31T16:53:13;1.73;;;0.80;;
39104;SDS011;46464;51.154;13.812;2023-03-31T16:55:41;5.30;;;0.88;;
39104;SDS011;46464;51.154;13.812;2023-03-31T16:58:08;2.13;;;1.00;;
39104;SDS011;46464;51.154;13.812;2023-03-31T17:00:35;1.52;;;0.60;;
39104;SDS011;46464;51.154;13.812;2023-03-31T17:03:19;2.47;;;0.77;;
39104;SDS011;46464;51.154;13.812;2023-03-31T17:06:10;3.38;;;0.95;;
39104;SDS011;46464;51.154;13.812;2023-03-31T17:08:37;3.17;;;1.08;;
39104;SDS011;46464;51.154;13.812;2023-03-31T17:14:21;5.22;;;1.95;;
39104;SDS011;46464;51.154;13.812;2023-03-31T17:16:48;4.15;;;1.75;;
39104;SDS011;46464;51.154;13.812;2023-03-31T17:19:15;8.10;;;3.38;;
39104;SDS011;46464;51.154;13.812;2023-03-31T17:21:42;4.00;;;2.00;;
39104;SDS011;46464;51.154;13.812;2023-03-31T17:24:08;3.80;;;1.63;;
39104;SDS011;46464;51.154;13.812;2023-03-31T17:26:35;4.10;;;1.65;;
39104;SDS011;46464;51.154;13.812;2023-03-31T17:29:02;4.00;;;2.15;;
39104;SDS011;46464;51.154;13.812;2023-03-31T17:31:29;3.05;;;1.50;;
39104;SDS011;46464;51.154;13.812;2023-03-31T17:33:57;5.80;;;2.63;;
39104;SDS011;46464;51.154;13.812;2023-03-31T17:36:23;3.60;;;1.90;;
39104;SDS011;46464;51.154;13.812;2023-03-31T17:38:50;4.15;;;2.20;;
39104;SDS011;46464;51.154;13.812;2023-03-31T17:41:17;4.53;;;2.65;;
39104;SDS011;46464;51.154;13.812;2023-03-31T17:43:44;3.65;;;2.38;;
39104;SDS011;46464;51.154;13.812;2023-03-31T17:46:11;5.28;;;3.05;;
39104;SDS011;46464;51.154;13.812;2023-03-31T17:48:39;6.63;;;3.72;;
39104;SDS011;46464;51.154;13.812;2023-03-31T17:51:09;6.13;;;3.25;;
39104;SDS011;46464;51.154;13.812;2023-03-31T17:53:40;4.72;;;3.03;;
39104;SDS011;46464;51.154;13.812;2023-03-31T17:56:08;6.45;;;4.00;;
39104;SDS011;46464;51.154;13.812;2023-03-31T17:58:34;6.47;;;4.18;;
39104;SDS011;46464;51.154;13.812;2023-03-31T18:01:04;4.97;;;3.97;;